Time;durP1;ratioP1;P1;durP2;ratioP2;P2;SDS_P1;SDS_P2;PMS_P1;PMS_P2;Temp;Humidity;BMP_temperature;BMP_pressure;BME280_temperature;BME280_humidity;BME280_pressure;Samples;Min_cycle;Max_cycle;Signal;HPM_P1;HPM_P2
2024/02/06 00:01:38;;;;;;;5.30;2.97;;;;;;;;;;5096509;28;20430;-42
2024/02/06 00:04:04;;;;;;;6.20;3.37;;;;;;;;;;5097066;28;20645;-41
2024/02/06 00:06:30;;;;;;;8.07;3.17;;;;;;;;;;5097343;28;20689;-41
2024/02/06 00:08:56;;;;;;;5.47;3.40;;;;;;;;;;5097851;28;20487;-41
2024/02/06 00:11:22;;;;;;;5.93;3.50;;;;;;;;;;5097064;28;20986;-41
2024/02/06 00:13:48;;;;;;;6.80;3.53;;;;;;;;;;5079409;28;20418;-42
2024/02/06 00:16:14;;;;;;;7.40;3.20;;;;;;;;;;5095855;28;20896;-41
2024/02/06 00:18:41;;;;;;;5.90;3.43;;;;;;;;;;5097322;28;20431;-42
2024/02/06 00:21:07;;;;;;;5.43;3.47;;;;;;;;;;5096683;28;20521;-44
2024/02/06 00:23:33;;;;;;;4.23;2.90;;;;;;;;;;5078597;28;20433;-42
2024/02/06 00:26:00;;;;;;;6.20;3.47;;;;;;;;;;5077735;28;20812;-42
2024/02/06 00:28:26;;;;;;;5.63;3.33;;;;;;;;;;5093940;28;20430;-42
2024/02/06 00:30:52;;;;;;;7.77;3.03;;;;;;;;;;5093651;28;20462;-42
2024/02/06 00:33:18;;;;;;;3.93;3.30;;;;;;;;;;5091584;28;20430;-41
2024/02/06 00:35:44;;;;;;;5.80;3.20;;;;;;;;;;5074701;28;20485;-43
2024/02/06 00:38:12;;;;;;;5.17;2.80;;;;;;;;;;5093431;28;20698;-43
2024/02/06 00:40:38;;;;;;;9.77;3.27;;;;;;;;;;5094706;28;20847;-41
2024/02/06 00:43:04;;;;;;;6.70;3.30;;;;;;;;;;5094041;28;20418;-42
2024/02/06 00:45:30;;;;;;;5.90;3.17;;;;;;;;;;5096705;28;20777;-41
2024/02/06 00:47:56;;;;;;;6.80;3.37;;;;;;;;;;5097213;28;20422;-41
2024/02/06 00:50:22;;;;;;;6.23;3.63;;;;;;;;;;5096832;28;20477;-42
2024/02/06 00:52:48;;;;;;;4.97;2.97;;;;;;;;;;5096857;28;20697;-41
2024/02/06 00:55:14;;;;;;;7.30;3.60;;;;;;;;;;5097043;28;20811;-41
2024/02/06 00:57:40;;;;;;;6.77;3.10;;;;;;;;;;5096970;28;20434;-41
2024/02/06 01:00:07;;;;;;;5.43;3.37;;;;;;;;;;5097198;28;20434;-42
2024/02/06 01:02:34;;;;;;;4.20;3.03;;;;;;;;;;5078991;28;20470;-43
2024/02/06 01:05:01;;;;;;;5.70;3.63;;;;;;;;;;5096623;28;20433;-44
2024/02/06 01:07:28;;;;;;;8.37;4.10;;;;;;;;;;5078090;28;20453;-41
2024/02/06 01:09:54;;;;;;;7.80;3.83;;;;;;;;;;5095231;28;20414;-42
2024/02/06 01:12:20;;;;;;;5.50;3.83;;;;;;;;;;5096481;28;20850;-40
2024/02/06 01:14:46;;;;;;;5.87;3.80;;;;;;;;;;5096242;28;20422;-40
2024/02/06 01:17:12;;;;;;;5.13;4.53;;;;;;;;;;5097002;28;20426;-42
2024/02/06 01:19:38;;;;;;;5.83;4.73;;;;;;;;;;5079207;28;20445;-42
2024/02/06 01:22:04;;;;;;;6.67;4.60;;;;;;;;;;5097238;28;20406;-41
2024/02/06 01:24:30;;;;;;;5.13;4.30;;;;;;;;;;5094941;28;20509;-41
2024/02/06 01:26:56;;;;;;;12.47;5.80;;;;;;;;;;5093716;28;20509;-40
2024/02/06 01:29:22;;;;;;;7.00;5.70;;;;;;;;;;5097936;28;20447;-40
2024/02/06 01:31:48;;;;;;;9.93;5.73;;;;;;;;;;5097823;28;20613;-42
2024/02/06 01:34:15;;;;;;;6.67;6.03;;;8.60;1.00;;;;;;5098930;28;20453;-42
2024/02/06 01:36:40;;;;;;;8.40;6.10;;;8.90;1.00;;;;;;5099356;28;20438;-40
2024/02/06 01:39:07;;;;;;;6.73;5.90;;;8.60;1.00;;;;;;5081768;28;20871;-42
2024/02/06 01:41:32;;;;;;;10.83;5.80;;;8.60;1.00;;;;;;5098774;28;20211;-43
2024/02/06 01:43:58;;;;;;;9.77;5.60;;;8.50;1.00;;;;;;5079610;28;20473;-42
2024/02/06 01:46:24;;;;;;;7.90;6.70;;;8.50;1.00;;;;;;5098339;28;20180;-41
2024/02/06 01:48:50;;;;;;;9.13;6.33;;;8.40;1.00;;;;;;5078860;28;20186;-40
2024/02/06 01:51:18;;;;;;;6.73;6.03;;;8.40;1.00;;;;;;5097283;28;20899;-41
2024/02/06 01:53:44;;;;;;;7.23;6.63;;;8.40;5.90;;;;;;5080295;28;20207;-43
2024/02/06 01:56:11;;;;;;;7.53;6.50;;;8.40;46.30;;;;;;5099122;28;20434;-41
2024/02/06 01:58:36;;;;;;;8.13;6.20;;;8.30;68.20;;;;;;5099342;28;20181;-47
2024/02/06 02:01:04;;;;;;;7.67;6.37;;;8.40;1.00;;;;;;5099571;28;20429;-41
2024/02/06 02:03:32;;;;;;;6.80;6.10;;;8.40;1.00;;;;;;5081919;28;20237;-42
2024/02/06 02:05:58;;;;;;;8.73;6.40;;;8.30;1.00;;;;;;5082148;28;20453;-41
2024/02/06 02:08:25;;;;;;;7.57;5.87;;;;;;;;;;5082133;28;20430;-43
2024/02/06 02:10:51;;;;;;;7.60;5.83;;;8.10;13.00;;;;;;5099064;28;20544;-42
2024/02/06 02:13:17;;;;;;;6.50;5.90;;;8.20;29.70;;;;;;5099325;28;20439;-42
2024/02/06 02:15:42;;;;;;;7.97;5.80;;;8.20;1.00;;;;;;5098621;28;20662;-43
2024/02/06 02:18:08;;;;;;;10.57;7.13;;;8.20;1.00;;;;;;5096952;28;20184;-42
2024/02/06 02:20:34;;;;;;;6.53;5.83;;;8.10;20.30;;;;;;5097941;28;20543;-42
2024/02/06 02:22:59;;;;;;;9.03;7.10;;;8.20;99.90;;;;;;5099085;28;20189;-41
2024/02/06 02:25:26;;;;;;;7.53;5.97;;;8.10;93.30;;;;;;5097908;28;20188;-41
2024/02/06 02:27:52;;;;;;;9.77;6.73;;;7.70;54.00;;;;;;5098668;28;20188;-42
2024/02/06 02:30:18;;;;;;;7.70;6.90;;;8.10;47.90;;;;;;5098641;28;20542;-41
2024/02/06 02:32:44;;;;;;;6.30;5.70;;;8.10;63.80;;;;;;5099157;28;20213;-43
2024/02/06 02:35:12;;;;;;;9.00;6.90;;;8.00;99.90;;;;;;5081059;28;20887;-41
2024/02/06 02:37:39;;;;;;;9.13;7.20;;;8.00;99.90;;;;;;5099056;28;20474;-40
2024/02/06 02:40:06;;;;;;;7.50;6.73;;;8.00;99.90;;;;;;5097449;28;20425;-42
2024/02/06 02:42:32;;;;;;;7.07;6.33;;;7.90;99.90;;;;;;5098128;28;20425;-41
2024/02/06 02:44:57;;;;;;;7.37;5.73;;;7.90;99.90;;;;;;5098769;28;20761;-42
2024/02/06 02:47:23;;;;;;;8.97;7.03;;;7.80;99.90;;;;;;5099116;28;20654;-42
2024/02/06 02:49:50;;;;;;;9.30;5.97;;;;;;;;;;5099241;28;20177;-42
2024/02/06 02:52:15;;;;;;;8.80;6.60;;;7.70;99.90;;;;;;5098304;28;20215;-41
2024/02/06 02:54:41;;;;;;;7.90;6.13;;;7.70;99.90;;;;;;5097878;28;20502;-43
2024/02/06 02:57:06;;;;;;;7.40;5.60;;;7.80;99.90;;;;;;5079834;28;20216;-42
2024/02/06 02:59:32;;;;;;;6.43;5.80;;;7.70;99.90;;;;;;5098300;28;20546;-43
2024/02/06 03:01:58;;;;;;;8.27;5.77;;;7.70;99.90;;;;;;5098345;28;20195;-42
2024/02/06 03:04:24;;;;;;;6.53;5.83;;;7.60;99.90;;;;;;5098173;28;20430;-44
2024/02/06 03:06:51;;;;;;;9.03;5.97;;;7.60;99.90;;;;;;5098693;28;20184;-42
2024/02/06 03:09:16;;;;;;;6.10;5.47;;;7.60;99.90;;;;;;5080721;28;20184;-40
2024/02/06 03:11:42;;;;;;;6.03;5.30;;;;;;;;;;5098099;28;20481;-41
2024/02/06 03:14:08;;;;;;;9.57;5.30;;;7.50;1.00;;;;;;5098437;28;20176;-42
2024/02/06 03:16:34;;;;;;;9.80;6.07;;;7.60;99.90;;;;;;5098216;28;20827;-42
2024/02/06 03:18:59;;;;;;;10.40;5.70;;;7.50;99.90;;;;;;5098205;28;20283;-41
2024/02/06 03:21:25;;;;;;;6.93;5.50;;;7.30;99.90;;;;;;5097906;28;20529;-42
2024/02/06 03:23:50;;;;;;;7.77;5.47;;;7.40;99.90;;;;;;5097961;28;20233;-41
2024/02/06 03:26:21;;;;;;;7.10;6.00;;;;;;;;;;5097564;28;20499;-41
2024/02/06 03:28:47;;;;;;;7.60;5.90;;;;;;;;;;5097556;28;20188;-42
2024/02/06 03:34:16;;;;;;;7.97;5.63;;;7.20;1.00;;;;;;5119445;27;20470;-42
2024/02/06 03:36:45;;;;;;;8.03;6.20;;;7.30;1.00;;;;;;5138387;27;20433;-41
2024/02/06 03:39:12;;;;;;;6.77;5.40;;;;;;;;;;5137661;27;20171;-44
2024/02/06 03:41:38;;;;;;;6.60;5.80;;;;;;;;;;5137750;27;20832;-43
2024/02/06 03:44:04;;;;;;;6.53;5.77;;;;;;;;;;5138560;27;20428;-41
2024/02/06 03:46:30;;;;;;;9.87;5.97;;;;;;;;;;5138750;27;20493;-41
2024/02/06 03:48:57;;;;;;;6.27;5.47;;;;;;;;;;5138366;27;20497;-41
2024/02/06 03:51:27;;;;;;;8.20;6.73;;;7.10;1.00;;;;;;5137115;27;20464;-43
2024/02/06 03:53:53;;;;;;;10.60;5.60;;;7.20;1.00;;;;;;5120092;27;20773;-41
2024/02/06 03:56:18;;;;;;;9.10;6.50;;;7.20;1.00;;;;;;5120304;27;20448;-42
2024/02/06 03:58:44;;;;;;;9.17;6.30;;;7.10;1.00;;;;;;5137958;27;20266;-41
2024/02/06 04:01:09;;;;;;;6.60;5.90;;;7.10;1.00;;;;;;5139005;27;20260;-42
2024/02/06 04:03:35;;;;;;;6.57;5.80;;;7.10;1.00;;;;;;5137026;27;20185;-45
2024/02/06 04:06:01;;;;;;;8.10;6.50;;;7.00;1.00;;;;;;5136776;27;20171;-42
2024/02/06 04:08:27;;;;;;;8.20;6.80;;;7.00;1.00;;;;;;5134330;27;20223;-44
2024/02/06 04:10:56;;;;;;;7.57;6.83;;;7.00;1.00;;;;;;5135892;27;20266;-45
2024/02/06 04:13:22;;;;;;;7.43;6.70;;;7.00;1.00;;;;;;5136774;27;20497;-41
2024/02/06 04:15:47;;;;;;;7.30;6.07;;;7.00;1.00;;;;;;5136358;27;20425;-42
2024/02/06 04:18:13;;;;;;;8.20;6.20;;;6.90;1.00;;;;;;5138312;27;20278;-42
2024/02/06 04:20:39;;;;;;;8.30;7.23;;;7.00;1.00;;;;;;5137506;27;20301;-42
2024/02/06 04:23:05;;;;;;;7.27;6.57;;;6.90;1.00;;;;;;5137865;27;20206;-42
2024/02/06 04:25:31;;;;;;;7.70;6.10;;;6.90;1.00;;;;;;5136231;27;20866;-41
2024/02/06 04:27:57;;;;;;;7.00;6.30;;;6.90;1.00;;;;;;5135426;27;20698;-42
2024/02/06 04:30:23;;;;;;;9.70;6.20;;;6.80;1.00;;;;;;5135312;27;20484;-41
2024/02/06 04:32:51;;;;;;;9.77;7.13;;;6.80;1.00;;;;;;5137291;28;20817;-41
2024/02/06 04:35:20;;;;;;;7.03;6.13;;;6.80;1.00;;;;;;5137669;27;20250;-41
2024/02/06 04:37:46;;;;;;;9.63;6.93;;;6.80;1.00;;;;;;5137133;27;20507;-43
2024/02/06 04:40:11;;;;;;;7.70;6.60;;;6.70;1.00;;;;;;5135478;28;20532;-42
2024/02/06 04:42:37;;;;;;;8.07;7.17;;;6.70;1.00;;;;;;5136090;28;20484;-42
2024/02/06 04:45:04;;;;;;;9.70;6.30;;;6.70;1.00;;;;;;5137218;28;20182;-41
2024/02/06 04:47:32;;;;;;;10.00;7.40;;;6.70;1.00;;;;;;5136066;27;20748;-42
2024/02/06 04:49:57;;;;;;;8.00;6.63;;;6.70;1.00;;;;;;5135891;27;20440;-41
2024/02/06 04:52:23;;;;;;;7.97;6.87;;;;;;;;;;5134724;28;20424;-41
2024/02/06 04:54:50;;;;;;;9.13;7.60;;;;;;;;;;5137349;28;20240;-42
2024/02/06 04:57:16;;;;;;;9.00;7.30;;;;;;;;;;5137728;27;20413;-42
2024/02/06 04:59:42;;;;;;;10.10;7.43;;;;;;;;;;5137640;28;20397;-44
2024/02/06 05:02:11;;;;;;;10.20;6.77;;;;;;;;;;5137148;27;20921;-41
2024/02/06 05:04:37;;;;;;;10.07;7.33;;;;;;;;;;5141246;27;20437;-45
2024/02/06 05:07:03;;;;;;;9.50;7.50;;;;;;;;;;5139598;27;20875;-42
2024/02/06 05:09:29;;;;;;;13.33;8.60;;;;;;;;;;5140439;27;20414;-43
2024/02/06 05:11:55;;;;;;;12.20;7.67;;;;;;;;;;5139830;27;20397;-43
2024/02/06 05:14:22;;;;;;;11.10;7.90;;;;;;;;;;5141145;27;20401;-42
2024/02/06 05:16:48;;;;;;;8.13;6.60;;;;;;;;;;5139608;27;20431;-41
2024/02/06 05:19:14;;;;;;;8.83;6.77;;;;;;;;;;5140181;27;20436;-45
2024/02/06 05:21:41;;;;;;;8.33;6.70;;;;;;;;;;5141528;27;20495;-42
2024/02/06 05:24:07;;;;;;;7.83;6.80;;;;;;;;;;5140601;27;20728;-42
2024/02/06 05:26:33;;;;;;;11.03;7.60;;;;;;;;;;5137937;27;20684;-43
2024/02/06 05:28:59;;;;;;;10.77;6.80;;;;;;;;;;5136721;27;20424;-41
2024/02/06 05:31:33;;;;;;;9.80;7.90;;;;;;;;;;5138451;27;20443;-42
2024/02/06 05:34:02;;;;;;;9.63;6.80;;;;;;;;;;5137896;27;20472;-44
2024/02/06 05:36:29;;;;;;;10.17;6.40;;;;;;;;;;5137520;27;20445;-40
2024/02/06 05:38:56;;;;;;;7.80;6.97;;;;;;;;;;5138253;27;20781;-42
2024/02/06 05:41:23;;;;;;;8.13;5.87;;;;;;;;;;5138829;27;20463;-45
2024/02/06 05:43:54;;;;;;;7.00;5.90;;;;;;;;;;5137713;27;20428;-40
2024/02/06 05:46:21;;;;;;;8.77;6.83;;;;;;;;;;5136230;27;20610;-41
2024/02/06 05:48:50;;;;;;;8.40;6.53;;;;;;;;;;5137507;27;20492;-42
2024/02/06 05:51:17;;;;;;;6.63;5.87;;;;;;;;;;5134936;27;20737;-42
2024/02/06 05:53:44;;;;;;;8.70;6.57;;;;;;;;;;5136768;27;20446;-40
2024/02/06 05:56:11;;;;;;;8.63;6.43;;;;;;;;;;5136570;27;20428;-41
2024/02/06 05:58:41;;;;;;;8.80;6.33;;;;;;;;;;5137984;27;20424;-40
2024/02/06 06:01:08;;;;;;;8.70;6.50;;;;;;;;;;5135650;27;20532;-43
2024/02/06 06:03:34;;;;;;;3.20;2.50;;;6.70;99.90;;;;;;5135835;27;20413;-44
2024/02/06 06:05:59;;;;;;;4.23;2.40;;;7.40;99.90;;;;;;5136006;27;20926;-43
2024/02/06 06:08:26;;;;;;;3.60;3.00;;;8.40;1.00;;;;;;5135018;27;20246;-46
2024/02/06 06:10:52;;;;;;;5.30;4.00;;;9.50;1.00;;;;;;5136559;27;20556;-46
2024/02/06 06:13:19;;;;;;;5.40;4.83;;;;;;;;;;5138397;27;20433;-45
2024/02/06 06:15:47;;;;;;;7.70;5.03;;;;;;;;;;5138476;27;20183;-43
2024/02/06 06:18:14;;;;;;;6.23;4.80;;;;;;;;;;5138182;27;20476;-44
2024/02/06 06:20:41;;;;;;;6.40;5.40;;;;;;;;;;5138142;27;20424;-48
2024/02/06 06:23:08;;;;;;;7.60;4.73;;;;;;;;;;5136649;27;20862;-46
2024/02/06 06:25:35;;;;;;;7.33;4.83;;;;;;;;;;5137293;27;20421;-45
2024/02/06 06:28:04;;;;;;;6.00;3.47;;;;;;;;;;5138116;27;20499;-43
2024/02/06 06:30:32;;;;;;;11.67;4.53;;;;;;;;;;5136433;27;20746;-45
2024/02/06 06:32:59;;;;;;;9.77;4.53;;;;;;;;;;5134051;27;20413;-45
2024/02/06 06:35:25;;;;;;;6.50;4.10;;;;;;;;;;5133741;27;20514;-46
2024/02/06 06:37:51;;;;;;;10.23;4.10;;;11.10;1.00;;;;;;5135453;27;20719;-45
2024/02/06 06:40:17;;;;;;;7.73;3.50;;;11.70;99.90;;;;;;5138024;27;20481;-41
2024/02/06 06:42:42;;;;;;;7.20;5.40;;;12.20;1.00;;;;;;5139916;27;20210;-42
2024/02/06 06:45:08;;;;;;;8.90;5.17;;;12.10;93.50;;;;;;5136747;27;20167;-42
2024/02/06 06:47:34;;;;;;;6.60;5.20;;;11.50;1.00;;;;;;5136929;27;20179;-40
2024/02/06 06:50:00;;;;;;;6.73;5.33;;;10.90;99.90;;;;;;5134121;27;20455;-44
2024/02/06 06:52:25;;;;;;;6.20;4.83;;;10.50;99.90;;;;;;5133985;27;20210;-42
2024/02/06 06:54:51;;;;;;;6.80;4.77;;;10.00;1.00;;;;;;5134605;27;20457;-41
2024/02/06 06:57:16;;;;;;;8.13;5.10;;;9.50;1.00;;;;;;5136320;27;20222;-42
2024/02/06 06:59:43;;;;;;;6.70;4.87;;;9.10;48.60;;;;;;5136578;27;20175;-41
2024/02/06 07:02:08;;;;;;;6.30;4.83;;;8.80;99.90;;;;;;5137256;27;20222;-40
2024/02/06 07:04:35;;;;;;;7.53;5.10;;;8.50;99.90;;;;;;5136270;27;20424;-40
2024/02/06 07:07:01;;;;;;;6.50;4.60;;;8.30;1.00;;;;;;5135607;27;20612;-40
2024/02/06 07:09:27;;;;;;;6.20;4.90;;;;;;;;;;5133296;27;20436;-42
2024/02/06 07:11:54;;;;;;;8.93;4.57;;;;;;;;;;5133544;27;20274;-42
2024/02/06 07:14:21;;;;;;;5.90;4.87;;;;;;;;;;5134706;27;20740;-43
2024/02/06 07:16:48;;;;;;;6.40;5.30;;;;;;;;;;5136162;27;20730;-42
2024/02/06 07:19:15;;;;;;;8.00;4.70;;;;;;;;;;5137655;27;20464;-40
2024/02/06 07:21:43;;;;;;;7.40;4.70;;;;;;;;;;5135784;27;20591;-41
2024/02/06 07:24:12;;;;;;;5.47;3.93;;;;;;;;;;5135911;27;20453;-41
2024/02/06 07:26:43;;;;;;;6.03;4.73;;;;;;;;;;5136126;27;20416;-42
2024/02/06 07:29:16;;;;;;;8.73;6.00;;;;;;;;;;5135970;27;20665;-43
2024/02/06 07:32:11;;;;;;;7.70;5.13;;;;;;;;;;5136824;27;20425;-41
2024/02/06 07:34:45;;;;;;;7.13;5.30;;;;;;;;;;5136286;27;20576;-42
2024/02/06 07:37:16;;;;;;;10.30;5.23;;;;;;;;;;5136632;27;20432;-42
2024/02/06 07:39:45;;;;;;;5.00;4.50;;;;;;;;;;5135768;27;20437;-43
2024/02/06 07:42:14;;;;;;;6.97;4.90;;;;;;;;;;5135247;27;20470;-41
2024/02/06 07:44:54;;;;;;;7.50;4.70;;;;;;;;;;5137651;27;20404;-43
2024/02/06 07:47:25;;;;;;;8.00;5.70;;;;;;;;;;5138310;27;20787;-42
2024/02/06 07:49:59;;;;;;;8.00;5.37;;;;;;;;;;5138015;27;20420;-44
2024/02/06 07:52:28;;;;;;;5.67;5.00;;;;;;;;;;5135420;27;20534;-40
2024/02/06 07:54:57;;;;;;;8.73;4.67;;;;;;;;;;5135848;27;20473;-41
2024/02/06 07:57:26;;;;;;;6.40;5.37;;;;;;;;;;5136427;27;20434;-41
2024/02/06 07:59:57;;;;;;;6.97;5.10;;;;;;;;;;5134078;27;20420;-42
2024/02/06 08:02:55;;;;;;;8.27;4.67;;;;;;;;;;5135396;27;20816;-40
2024/02/06 08:06:04;;;;;;;10.83;5.73;;;;;;;;;;5134754;27;20440;-42
2024/02/06 08:08:32;;;;;;;7.50;6.03;;;;;;;;;;5137007;27;20799;-41
2024/02/06 08:10:58;;;;;;;7.10;5.40;;;7.90;1.00;;;;;;5132182;27;20585;-41
2024/02/06 08:13:26;;;;;;;8.83;5.47;;;;;;;;;;5129965;27;20523;-41
2024/02/06 08:15:54;;;;;;;7.30;5.47;;;;;;;;;;5134283;27;20421;-41
2024/02/06 08:18:21;;;;;;;7.50;4.50;;;;;;;;;;5138316;27;20585;-41
2024/02/06 08:20:48;;;;;;;5.97;5.17;;;;;;;;;;5135299;27;20728;-41
2024/02/06 08:23:14;;;;;;;6.03;4.77;;;8.00;1.00;;;;;;5135970;27;20417;-41
2024/02/06 08:25:39;;;;;;;6.33;4.80;;;8.10;99.90;;;;;;5135324;27;20544;-40
2024/02/06 08:28:05;;;;;;;5.43;4.90;;;8.10;99.90;;;;;;5136510;27;20179;-40
2024/02/06 08:30:32;;;;;;;5.63;4.63;;;;;;;;;;5138079;27;20183;-42
2024/02/06 08:32:57;;;;;;;7.43;5.57;;;7.90;99.90;;;;;;5136644;27;20412;-41
2024/02/06 08:35:23;;;;;;;6.17;4.73;;;8.30;99.90;;;;;;5134520;28;20412;-41
2024/02/06 08:37:48;;;;;;;5.47;4.97;;;8.40;80.80;;;;;;5136103;27;20187;-42
2024/02/06 08:40:14;;;;;;;7.10;4.87;;;8.50;14.90;;;;;;5135668;28;20209;-42
2024/02/06 08:42:40;;;;;;;5.20;4.50;;;8.50;1.00;;;;;;5136650;27;20179;-43
2024/02/06 08:45:08;;;;;;;8.07;4.20;;;8.60;1.00;;;;;;5137555;27;20203;-40
2024/02/06 08:47:34;;;;;;;5.50;4.33;;;8.70;1.00;;;;;;5136788;28;20655;-40
2024/02/06 08:49:59;;;;;;;5.33;4.80;;;8.70;1.00;;;;;;5135664;27;20447;-40
2024/02/06 08:52:25;;;;;;;5.00;4.37;;;8.80;1.00;;;;;;5133308;28;20437;-40
2024/02/06 08:54:50;;;;;;;8.27;4.90;;;8.80;99.90;;;;;;5135802;28;20533;-40
2024/02/06 08:57:17;;;;;;;6.07;4.13;;;8.90;99.90;;;;;;5136657;28;20179;-40
2024/02/06 08:59:42;;;;;;;5.57;3.90;;;8.90;99.90;;;;;;5135201;27;20205;-40
2024/02/06 09:02:08;;;;;;;4.43;3.80;;;9.00;99.90;;;;;;5134904;28;20826;-41
2024/02/06 09:04:34;;;;;;;6.50;4.40;;;9.00;99.90;;;;;;5134441;27;20230;-41
2024/02/06 09:07:00;;;;;;;5.43;4.33;;;9.10;99.90;;;;;;5135827;28;20648;-41
2024/02/06 09:09:25;;;;;;;9.43;2.30;;;9.20;99.90;;;;;;5133084;27;20271;-42
2024/02/06 09:11:51;;;;;;;2.63;1.80;;;9.50;99.90;;;;;;5133964;28;20473;-42
2024/02/06 09:14:17;;;;;;;7.80;2.47;;;10.40;1.00;;;;;;5135011;27;20175;-44
2024/02/06 09:16:43;;;;;;;7.97;2.40;;;11.40;1.00;;;;;;5133957;28;20429;-43
2024/02/06 09:19:09;;;;;;;11.50;3.10;;;12.30;99.90;;;;;;5134148;28;20183;-42
2024/02/06 09:21:36;;;;;;;7.93;2.20;;;13.20;55.00;;;;;;5136084;27;20533;-44
2024/02/06 09:24:02;;;;;;;9.07;2.03;;;14.00;1.00;;;;;;5132552;27;20471;-43
2024/02/06 09:26:27;;;;;;;5.27;2.27;;;14.70;1.00;;;;;;5131822;28;20520;-43
2024/02/06 09:28:53;;;;;;;5.57;2.77;;;15.30;1.00;;;;;;5132960;27;20516;-44
2024/02/06 09:31:20;;;;;;;3.27;2.00;;;15.80;99.90;;;;;;5134182;28;20287;-42
2024/02/06 09:33:46;;;;;;;5.63;2.13;;;16.20;1.00;;;;;;5131326;27;20833;-44
2024/02/06 09:36:11;;;;;;;4.13;2.10;;;16.60;1.00;;;;;;5132324;28;20504;-45
2024/02/06 09:38:37;;;;;;;4.73;2.00;;;16.90;99.90;;;;;;5135534;28;20559;-44
2024/02/06 09:41:05;;;;;;;5.93;2.77;;;17.20;49.30;;;;;;5135506;27;20255;-43
2024/02/06 09:43:32;;;;;;;4.90;2.10;;;17.30;14.30;;;;;;5133493;27;20190;-42
2024/02/06 09:45:57;;;;;;;2.73;2.20;;;17.40;1.00;;;;;;5135549;28;20424;-43
2024/02/06 09:48:26;;;;;;;3.40;2.10;;;17.50;1.00;;;;;;5136151;27;20408;-42
2024/02/06 09:50:54;;;;;;;6.90;1.77;;;17.70;1.00;;;;;;5139708;27;20618;-43
2024/02/06 09:53:20;;;;;;;2.23;1.47;;;17.70;1.00;;;;;;5140131;27;21108;-42
2024/02/06 09:55:47;;;;;;;3.60;1.47;;;17.60;1.00;;;;;;5137178;27;20456;-45
2024/02/06 09:58:13;;;;;;;2.13;1.43;;;17.60;1.00;;;;;;5132695;27;20176;-41
2024/02/06 10:00:39;;;;;;;2.40;1.40;;;17.70;1.00;;;;;;5116979;28;20426;-42
2024/02/06 10:03:11;;;;;;;3.73;2.33;;;17.80;1.00;;;;;;5118263;28;20822;-43
2024/02/06 10:05:42;;;;;;;4.70;1.50;;;18.00;1.00;;;;;;5116702;28;20522;-41
2024/02/06 10:08:08;;;;;;;3.25;1.50;;;18.00;1.00;;;;;;5117644;28;20418;-42
2024/02/06 10:10:35;;;;;;;1.90;1.33;;;18.10;1.00;;;;;;5117371;28;20494;-44
2024/02/06 10:13:02;;;;;;;1.73;1.20;;;17.80;1.00;;;;;;5118504;28;20429;-40
2024/02/06 10:15:28;;;;;;;2.57;1.30;;;17.10;1.00;;;;;;5117662;28;20483;-43
2024/02/06 10:17:53;;;;;;;2.43;1.67;;;16.50;1.00;;;;;;5115301;28;20417;-43
2024/02/06 10:20:19;;;;;;;2.17;1.20;;;16.20;1.00;;;;;;5113122;28;20463;-42
2024/02/06 10:22:46;;;;;;;1.77;1.30;;;15.80;1.00;;;;;;5114076;28;20222;-44
2024/02/06 10:25:13;;;;;;;1.40;1.17;;;15.50;1.00;;;;;;5114707;28;20215;-42
2024/02/06 10:27:39;;;;;;;1.73;1.40;;;15.30;1.00;;;;;;5116396;28;20425;-42
2024/02/06 10:30:08;;;;;;;3.37;1.40;;;15.00;1.00;;;;;;5116831;28;20421;-42
2024/02/06 10:32:34;;;;;;;1.93;1.67;;;14.80;1.00;;;;;;5116890;28;20176;-45
2024/02/06 10:35:09;;;;;;;1.97;1.33;;;14.60;1.00;;;;;;5115169;28;20791;-43
2024/02/06 10:37:36;;;;;;;1.80;1.53;;;14.50;1.00;;;;;;5117477;28;20443;-43
2024/02/06 10:40:09;;;;;;;2.77;1.60;;;14.40;1.00;;;;;;5117633;28;20426;-42
2024/02/06 10:42:39;;;;;;;3.30;1.53;;;14.30;1.00;;;;;;5114824;28;20429;-42
2024/02/06 10:45:07;;;;;;;1.80;1.60;;;14.20;1.00;;;;;;5117187;28;20854;-41
2024/02/06 10:47:32;;;;;;;2.73;1.60;;;14.10;1.00;;;;;;5115366;28;20477;-43
2024/02/06 10:50:05;;;;;;;1.90;1.57;;;14.10;1.00;;;;;;5118346;28;20818;-43
2024/02/06 10:52:31;;;;;;;3.30;1.77;;;14.00;1.00;;;;;;5116082;28;20215;-44
2024/02/06 10:54:57;;;;;;;2.50;1.63;;;13.90;1.00;;;;;;5115492;28;20723;-41
2024/02/06 10:57:28;;;;;;;2.63;1.70;;;13.90;1.00;;;;;;5113815;28;20704;-41
2024/02/06 11:00:07;;;;;;;4.10;1.70;;;13.90;1.00;;;;;;5115093;28;20544;-43
2024/02/06 11:02:33;;;;;;;3.53;1.90;;;13.90;1.00;;;;;;5115841;28;20406;-42
2024/02/06 11:05:06;;;;;;;2.27;1.90;;;13.90;1.00;;;;;;5114029;28;20476;-41
2024/02/06 11:07:36;;;;;;;2.00;1.50;;;13.90;1.00;;;;;;5113719;28;20457;-41
2024/02/06 11:10:03;;;;;;;4.20;2.90;;;13.90;1.00;;;;;;5096595;28;20437;-41
2024/02/06 11:12:29;;;;;;;3.50;2.60;;;14.00;1.00;;;;;;5113980;28;20475;-42
2024/02/06 11:14:59;;;;;;;2.53;2.00;;;14.10;1.00;;;;;;5115030;28;20476;-44
2024/02/06 11:17:25;;;;;;;2.80;1.73;;;14.20;1.00;;;;;;5113009;28;20642;-41
2024/02/06 11:20:06;;;;;;;4.60;2.10;;;14.30;1.00;;;;;;5113782;28;20890;-43
2024/02/06 11:22:36;;;;;;;2.03;1.53;;;14.30;1.00;;;;;;5113853;28;20183;-43
2024/02/06 11:25:02;;;;;;;2.80;1.60;;;14.40;1.00;;;;;;5114577;28;20476;-41
2024/02/06 11:27:28;;;;;;;2.23;1.50;;;14.40;1.00;;;;;;5116137;28;20857;-46
2024/02/06 11:29:55;;;;;;;4.03;2.40;;;14.30;1.00;;;;;;5115704;28;20409;-41
2024/02/06 11:32:21;;;;;;;3.97;2.17;;;14.30;1.00;;;;;;5115331;28;20406;-44
2024/02/06 11:34:49;;;;;;;2.40;1.80;;;14.20;1.00;;;;;;5116185;28;20488;-41
2024/02/06 11:37:28;;;;;;;3.17;2.30;;;14.20;1.00;;;;;;5115420;28;20184;-42
2024/02/06 11:40:08;;;;;;;3.93;1.60;;;14.10;1.00;;;;;;5113629;28;20516;-43
2024/02/06 11:42:38;;;;;;;3.67;2.20;;;14.00;1.00;;;;;;5114427;28;20452;-43
2024/02/06 11:45:09;;;;;;;3.07;1.60;;;13.90;1.00;;;;;;5115099;28;20469;-41
2024/02/06 11:47:36;;;;;;;6.03;1.70;;;13.80;1.00;;;;;;5116000;28;20749;-44
2024/02/06 11:50:12;;;;;;;3.77;1.77;;;13.70;1.00;;;;;;5114674;28;20445;-42
2024/02/06 11:52:39;;;;;;;5.33;1.80;;;13.70;1.00;;;;;;5114926;28;20816;-42
2024/02/06 11:55:05;;;;;;;3.07;1.60;;;13.50;1.00;;;;;;5113318;28;20482;-42
2024/02/06 11:57:31;;;;;;;4.17;2.00;;;13.40;1.00;;;;;;5117083;28;20496;-42
2024/02/06 11:59:58;;;;;;;6.10;2.47;;;13.40;1.00;;;;;;5111377;28;20568;-41
2024/02/06 12:02:24;;;;;;;4.17;1.40;;;13.30;1.00;;;;;;5112933;28;20184;-43
2024/02/06 12:04:49;;;;;;;3.33;1.70;;;13.10;1.00;;;;;;5114107;28;20479;-42
2024/02/06 12:07:16;;;;;;;3.40;1.80;;;13.10;1.00;;;;;;5111158;28;20600;-44
2024/02/06 12:09:43;;;;;;;6.37;1.90;;;13.00;1.00;;;;;;5112788;28;20168;-43
2024/02/06 12:12:09;;;;;;;3.63;1.70;;;13.00;1.00;;;;;;5113041;28;20417;-41
2024/02/06 12:14:35;;;;;;;3.23;2.03;;;12.90;1.00;;;;;;5114338;28;20462;-44
2024/02/06 12:17:01;;;;;;;5.30;2.07;;;12.80;1.00;;;;;;5113211;28;20533;-42
2024/02/06 12:19:27;;;;;;;7.30;1.80;;;12.80;1.00;;;;;;5111524;28;20190;-41
2024/02/06 12:22:07;;;;;;;7.03;2.10;;;12.70;1.00;;;;;;5113749;28;20432;-44
2024/02/06 12:24:34;;;;;;;5.10;1.90;;;12.70;1.00;;;;;;5093687;28;20473;-41
2024/02/06 12:27:08;;;;;;;4.93;2.30;;;12.60;1.00;;;;;;5112495;28;20397;-45
2024/02/06 12:29:41;;;;;;;4.60;2.30;;;12.60;1.00;;;;;;5112371;28;20429;-44
2024/02/06 12:32:07;;;;;;;3.53;2.10;;;12.60;1.00;;;;;;5111225;28;20501;-44
2024/02/06 12:34:33;;;;;;;5.47;2.20;;;12.60;1.00;;;;;;5108645;28;20766;-44
2024/02/06 12:37:02;;;;;;;6.07;3.20;;;12.60;1.00;;;;;;5111745;28;20721;-41
2024/02/06 12:39:32;;;;;;;2.87;1.57;;;12.60;1.00;;;;;;5111230;28;20274;-41
2024/02/06 12:42:01;;;;;;;6.27;2.43;;;12.60;1.00;;;;;;5111771;28;20544;-42
2024/02/06 12:44:28;;;;;;;6.40;2.00;;;12.60;1.00;;;;;;5112763;28;20913;-41
2024/02/06 12:46:56;;;;;;;6.17;2.00;;;12.60;1.00;;;;;;5112170;28;20421;-41
2024/02/06 12:49:23;;;;;;;4.03;2.10;;;12.60;1.00;;;;;;5112518;28;20467;-42
2024/02/06 12:51:48;;;;;;;4.47;2.00;;;12.60;1.00;;;;;;5113175;28;20432;-42
2024/02/06 12:54:14;;;;;;;3.70;1.67;;;12.60;1.00;;;;;;5110500;28;20788;-42
2024/02/06 12:56:39;;;;;;;3.20;1.90;;;12.70;1.00;;;;;;5112593;28;20477;-41
2024/02/06 12:59:06;;;;;;;4.00;1.83;;;12.70;1.00;;;;;;5111860;28;20183;-42
2024/02/06 13:01:31;;;;;;;4.17;1.80;;;12.90;1.00;;;;;;5112614;28;20187;-42
2024/02/06 13:03:57;;;;;;;4.03;1.80;;;13.20;1.00;;;;;;5112033;28;20898;-41
2024/02/06 13:06:25;;;;;;;2.67;1.30;;;13.40;1.00;;;;;;5110735;28;20399;-42
2024/02/06 13:08:51;;;;;;;4.63;2.10;;;13.60;1.00;;;;;;5111380;28;20428;-42
2024/02/06 13:11:17;;;;;;;3.00;1.57;;;13.70;1.00;;;;;;5112366;28;20425;-41
2024/02/06 13:13:43;;;;;;;4.37;1.73;;;13.90;1.00;;;;;;5110871;28;20484;-43
2024/02/06 13:16:12;;;;;;;7.83;2.37;;;14.00;1.00;;;;;;5112225;28;20183;-48
2024/02/06 13:18:38;;;;;;;3.27;1.67;;;14.10;1.00;;;;;;5113870;28;20668;-43
2024/02/06 13:21:05;;;;;;;4.90;1.73;;;14.10;1.00;;;;;;5113812;28;20416;-44
2024/02/06 13:23:30;;;;;;;4.30;1.97;;;14.10;1.00;;;;;;5113895;28;20475;-41
2024/02/06 13:25:56;;;;;;;6.30;2.10;;;14.10;1.00;;;;;;5117475;28;20438;-42
2024/02/06 13:28:21;;;;;;;6.70;2.40;;;14.10;1.00;;;;;;5114955;28;20187;-43
2024/02/06 13:30:47;;;;;;;3.80;1.70;;;14.00;1.00;;;;;;5117790;28;20179;-42
2024/02/06 13:33:14;;;;;;;3.30;1.67;;;13.90;1.00;;;;;;5118397;28;20176;-41
2024/02/06 13:35:39;;;;;;;7.00;2.27;;;13.80;1.00;;;;;;5117501;28;20638;-41